Time;durP1;ratioP1;P1;durP2;ratioP2;P2;SDS_P1;SDS_P2;PMS_P1;PMS_P2;Temp;Humidity;BMP_temperature;BMP_pressure;BME280_temperature;BME280_humidity;BME280_pressure;Samples;Min_cycle;Max_cycle;Signal;HPM_P1;HPM_P2
2021/08/22 00:00:15;;;;;;;9.60;8.18;;;20.90;89.60;;;;;;4841545;29;20512;-81
2021/08/22 00:02:41;;;;;;;10.10;8.00;;;20.90;89.30;;;;;;4846917;29;20097;-81
2021/08/22 00:05:07;;;;;;;11.27;9.20;;;20.90;89.60;;;;;;4847122;29;20058;-81
2021/08/22 00:07:33;;;;;;;10.77;8.38;;;20.80;89.40;;;;;;4850161;29;20491;-81
2021/08/22 00:09:59;;;;;;;10.30;8.50;;;20.80;89.30;;;;;;4846887;29;20136;-81
2021/08/22 00:12:25;;;;;;;10.30;7.90;;;20.80;89.60;;;;;;4848586;29;20049;-81
2021/08/22 00:14:51;;;;;;;10.18;8.30;;;20.80;89.80;;;;;;4851155;29;20058;-88
2021/08/22 00:17:17;;;;;;;10.38;8.77;;;20.80;89.90;;;;;;4848996;29;20054;-88
2021/08/22 00:19:42;;;;;;;10.25;9.00;;;20.80;90.00;;;;;;4844849;29;20046;-87
2021/08/22 00:22:08;;;;;;;10.60;8.80;;;20.70;90.10;;;;;;4844305;29;20087;-88
2021/08/22 00:24:34;;;;;;;10.07;8.75;;;20.70;90.20;;;;;;4851864;29;20132;-81
2021/08/22 00:27:06;;;;;;;10.10;8.82;;;20.70;90.30;;;;;;4843964;29;20053;-82
2021/08/22 00:29:32;;;;;;;10.77;8.85;;;20.70;90.30;;;;;;4843605;29;20097;-81
2021/08/22 00:32:01;;;;;;;11.55;9.05;;;20.70;90.30;;;;;;4844495;29;20056;-82
2021/08/22 00:34:27;;;;;;;11.90;9.15;;;20.70;90.40;;;;;;4848421;29;20066;-81
2021/08/22 00:36:54;;;;;;;11.52;9.75;;;20.70;90.30;;;;;;4846127;29;20080;-81
2021/08/22 00:39:23;;;;;;;11.93;10.15;;;20.70;90.20;;;;;;4843224;29;20076;-81
2021/08/22 00:41:49;;;;;;;13.00;11.30;;;20.60;90.10;;;;;;4843333;29;20089;-81
2021/08/22 00:44:14;;;;;;;15.63;12.30;;;20.60;90.10;;;;;;4842367;29;20081;-82
2021/08/22 00:46:40;;;;;;;11.82;9.95;;;20.60;90.00;;;;;;4850029;29;20701;-81
2021/08/22 00:49:06;;;;;;;14.00;10.00;;;20.60;90.40;;;;;;4846270;29;20213;-82
2021/08/22 00:51:33;;;;;;;12.05;9.93;;;20.50;90.30;;;;;;4849584;29;20081;-81
2021/08/22 00:53:59;;;;;;;11.20;10.00;;;20.50;90.40;;;;;;4851511;29;20427;-81
2021/08/22 00:56:25;;;;;;;11.48;9.68;;;20.50;90.30;;;;;;4850873;29;20134;-82
2021/08/22 00:58:51;;;;;;;10.98;9.60;;;20.50;90.40;;;;;;4852110;29;20519;-82
2021/08/22 01:01:20;;;;;;;15.43;13.73;;;20.50;90.30;;;;;;4854258;29;20132;-81
2021/08/22 01:04:06;;;;;;;15.52;12.88;;;20.50;90.10;;;;;;4850945;29;20053;-82
2021/08/22 01:06:55;;;;;;;11.82;10.60;;;20.50;89.50;;;;;;4848973;29;20135;-83
2021/08/22 01:09:34;;;;;;;14.95;12.38;;;20.40;90.10;;;;;;4847202;29;20057;-82
2021/08/22 01:12:16;;;;;;;12.27;10.50;;;20.40;90.00;;;;;;4848572;29;20066;-81
2021/08/22 01:14:48;;;;;;;11.90;10.30;;;20.40;90.10;;;;;;4847098;29;20054;-82
2021/08/22 01:17:16;;;;;;;12.75;10.73;;;20.30;90.10;;;;;;4851213;29;20061;-81
2021/08/22 01:20:08;;;;;;;13.30;11.90;;;20.30;90.30;;;;;;4851086;29;20054;-81
2021/08/22 01:22:36;;;;;;;14.40;12.20;;;20.30;90.20;;;;;;4850281;29;20057;-82
2021/08/22 01:25:03;;;;;;;13.60;12.13;;;20.30;90.20;;;;;;4846379;29;20049;-82
2021/08/22 01:27:30;;;;;;;12.73;11.02;;;20.30;90.10;;;;;;4847777;29;20058;-81
2021/08/22 01:30:02;;;;;;;13.05;11.50;;;20.30;90.20;;;;;;4847758;29;20089;-82
2021/08/22 01:32:44;;;;;;;13.95;11.70;;;20.30;90.30;;;;;;4851952;29;20123;-81
2021/08/22 01:35:17;;;;;;;16.52;14.40;;;20.20;90.20;;;;;;4850259;29;20060;-82
2021/08/22 01:37:46;;;;;;;17.27;14.45;;;20.20;90.20;;;;;;4852609;29;21170;-82
2021/08/22 01:40:12;;;;;;;17.58;15.55;;;20.20;90.30;;;;;;4847232;29;20128;-82
2021/08/22 01:42:41;;;;;;;17.83;15.85;;;20.10;90.40;;;;;;4850270;29;20426;-82
2021/08/22 01:45:09;;;;;;;17.75;14.82;;;20.10;90.50;;;;;;4849525;29;20086;-82
2021/08/22 01:47:36;;;;;;;16.35;14.65;;;20.00;90.40;;;;;;4844789;29;20061;-82
2021/08/22 01:50:04;;;;;;;16.83;11.90;;;20.00;90.60;;;;;;4848342;29;20057;-82
2021/08/22 01:52:32;;;;;;;19.35;16.60;;;20.00;90.70;;;;;;4852894;29;20057;-82
2021/08/22 01:54:58;;;;;;;18.80;14.82;;;19.90;90.90;;;;;;4850967;29;20057;-81
2021/08/22 01:57:24;;;;;;;18.50;15.38;;;20.00;91.00;;;;;;4850102;29;20123;-81
2021/08/22 01:59:50;;;;;;;17.70;14.20;;;19.90;91.10;;;;;;4844876;29;20049;-80
2021/08/22 02:02:16;;;;;;;16.45;14.23;;;19.90;91.10;;;;;;4850094;29;20503;-79
2021/08/22 02:04:53;;;;;;;17.27;14.45;;;19.90;91.20;;;;;;4846259;29;20045;-80
2021/08/22 02:07:23;;;;;;;17.00;15.20;;;19.80;91.10;;;;;;4850291;29;21669;-80
2021/08/22 02:10:08;;;;;;;14.88;12.48;;;19.80;91.40;;;;;;4845164;29;20049;-80
2021/08/22 02:12:34;;;;;;;17.90;15.90;;;19.80;91.10;;;;;;4846759;29;20060;-80
2021/08/22 02:15:01;;;;;;;13.88;12.40;;;19.70;91.60;;;;;;4849771;29;20046;-79
2021/08/22 02:17:32;;;;;;;13.05;11.65;;;19.70;91.40;;;;;;4852761;29;20077;-81
2021/08/22 02:19:59;;;;;;;14.23;12.43;;;19.70;91.50;;;;;;4845807;29;20045;-80
2021/08/22 02:22:25;;;;;;;14.02;12.40;;;19.70;91.60;;;;;;4851431;29;20417;-81
2021/08/22 02:24:52;;;;;;;13.77;12.07;;;19.70;91.60;;;;;;4844401;29;20060;-80
2021/08/22 02:27:18;;;;;;;12.93;11.52;;;19.70;91.60;;;;;;4848519;29;20072;-79
2021/08/22 02:29:46;;;;;;;13.40;12.00;;;19.70;91.60;;;;;;4847339;29;20053;-79
2021/08/22 02:32:11;;;;;;;13.00;11.57;;;19.70;91.50;;;;;;4848102;29;20060;-80
2021/08/22 02:34:37;;;;;;;15.05;12.50;;;19.70;91.30;;;;;;4848112;29;20042;-80
2021/08/22 02:37:05;;;;;;;14.40;12.32;;;19.60;91.20;;;;;;4848703;29;20045;-81
2021/08/22 02:39:30;;;;;;;13.90;11.40;;;19.60;91.10;;;;;;4850903;29;20060;-80
2021/08/22 02:41:56;;;;;;;13.55;11.43;;;19.60;91.00;;;;;;4850091;29;20090;-81
2021/08/22 02:44:22;;;;;;;12.95;11.55;;;19.60;91.10;;;;;;4851959;29;20091;-81
2021/08/22 02:46:47;;;;;;;13.23;11.60;;;19.60;90.90;;;;;;4846054;29;20129;-81
2021/08/22 02:49:13;;;;;;;12.85;11.25;;;19.60;90.90;;;;;;4848819;29;20639;-81
2021/08/22 02:51:39;;;;;;;13.10;11.23;;;19.60;90.90;;;;;;4846327;29;20153;-81
2021/08/22 02:54:05;;;;;;;12.82;11.52;;;19.60;90.90;;;;;;4845152;29;20056;-81
2021/08/22 02:56:30;;;;;;;12.75;11.25;;;19.60;90.90;;;;;;4847423;29;20050;-80
2021/08/22 02:58:56;;;;;;;13.02;11.15;;;19.60;90.90;;;;;;4849696;29;21206;-81
2021/08/22 03:01:22;;;;;;;12.20;10.90;;;19.50;90.90;;;;;;4850022;29;20095;-80
2021/08/22 03:03:47;;;;;;;13.75;11.13;;;19.50;91.10;;;;;;4852092;29;20056;-81
2021/08/22 03:06:13;;;;;;;12.90;11.10;;;19.60;90.90;;;;;;4847183;29;20517;-81
2021/08/22 03:08:39;;;;;;;13.07;11.77;;;19.50;91.00;;;;;;4846081;29;20529;-81
2021/08/22 03:11:05;;;;;;;13.18;11.75;;;19.50;91.40;;;;;;4846254;29;20050;-81
2021/08/22 03:13:30;;;;;;;16.67;14.88;;;19.50;91.20;;;;;;4849821;29;20053;-81
2021/08/22 03:15:56;;;;;;;13.73;12.25;;;19.50;91.10;;;;;;4849616;29;20057;-81
2021/08/22 03:18:22;;;;;;;13.20;11.40;;;19.50;91.40;;;;;;4849943;29;20049;-80
2021/08/22 03:20:47;;;;;;;13.35;11.95;;;19.50;91.40;;;;;;4842595;29;20509;-80
2021/08/22 03:23:13;;;;;;;19.85;16.23;;;19.40;91.30;;;;;;4848117;29;20049;-80
2021/08/22 03:25:39;;;;;;;14.98;13.10;;;19.40;91.40;;;;;;4846697;29;20547;-80
2021/08/22 03:28:04;;;;;;;18.40;16.48;;;19.40;91.50;;;;;;4851597;29;21479;-80
2021/08/22 03:30:30;;;;;;;13.38;11.98;;;19.40;91.60;;;;;;4847028;29;20088;-79
2021/08/22 03:32:56;;;;;;;20.40;15.07;;;19.40;91.60;;;;;;4845693;29;20396;-80
2021/08/22 03:35:22;;;;;;;14.98;13.38;;;19.40;91.70;;;;;;4844444;29;20073;-80
2021/08/22 03:37:48;;;;;;;13.25;11.85;;;19.40;91.70;;;;;;4843404;29;20068;-80
2021/08/22 03:40:14;;;;;;;12.90;11.50;;;19.40;91.70;;;;;;4851664;29;20058;-80
2021/08/22 03:42:39;;;;;;;12.68;11.25;;;19.30;91.60;;;;;;4848142;29;20772;-80
2021/08/22 03:45:05;;;;;;;13.90;12.50;;;19.30;91.80;;;;;;4846480;29;20803;-80
2021/08/22 03:47:31;;;;;;;13.38;12.07;;;19.30;91.90;;;;;;4844706;29;20573;-80
2021/08/22 03:49:57;;;;;;;14.10;12.32;;;19.30;91.80;;;;;;4849228;29;20046;-81
2021/08/22 03:52:23;;;;;;;12.90;11.48;;;19.30;91.70;;;;;;4847981;29;20110;-82
2021/08/22 03:54:49;;;;;;;16.35;14.30;;;19.30;91.60;;;;;;4844110;29;20050;-81
2021/08/22 03:57:14;;;;;;;14.07;12.15;;;19.20;91.60;;;;;;4846217;29;20049;-82
2021/08/22 03:59:40;;;;;;;12.98;11.57;;;19.30;91.60;;;;;;4843944;29;20056;-82
2021/08/22 04:02:06;;;;;;;13.18;11.43;;;19.20;91.50;;;;;;4845859;29;20178;-81
2021/08/22 04:04:32;;;;;;;13.50;11.45;;;19.20;91.70;;;;;;4850535;29;20050;-81
2021/08/22 04:06:58;;;;;;;14.13;12.63;;;19.20;91.70;;;;;;4850225;29;20126;-81
2021/08/22 04:09:25;;;;;;;13.45;11.73;;;19.20;91.70;;;;;;4850458;29;20515;-81
2021/08/22 04:11:54;;;;;;;13.90;12.05;;;19.20;91.60;;;;;;4847851;29;20055;-81
2021/08/22 04:14:20;;;;;;;14.50;11.85;;;19.20;91.60;;;;;;4844484;29;20057;-81
2021/08/22 04:16:47;;;;;;;12.95;11.65;;;19.20;91.50;;;;;;4845568;29;20062;-81
2021/08/22 04:19:14;;;;;;;13.55;11.80;;;19.20;91.60;;;;;;4846609;29;20061;-81
2021/08/22 04:21:41;;;;;;;15.95;13.93;;;19.10;91.60;;;;;;4847601;29;20057;-82
2021/08/22 04:24:08;;;;;;;15.32;11.82;;;19.20;91.40;;;;;;4844152;29;20057;-81
2021/08/22 04:26:34;;;;;;;15.85;13.20;;;19.20;91.60;;;;;;4844831;29;20060;-80
2021/08/22 04:29:00;;;;;;;17.98;16.10;;;19.20;91.50;;;;;;4841661;29;20494;-80
2021/08/22 04:31:26;;;;;;;13.98;12.57;;;19.10;91.70;;;;;;4845726;29;20585;-80
2021/08/22 04:33:51;;;;;;;19.10;16.50;;;19.10;91.60;;;;;;4845811;29;20052;-82
2021/08/22 04:36:17;;;;;;;22.13;19.20;;;19.10;91.80;;;;;;4845873;29;20046;-81
2021/08/22 04:38:43;;;;;;;19.83;17.75;;;19.10;92.10;;;;;;4849989;29;20058;-81
2021/08/22 04:41:08;;;;;;;22.45;20.05;;;19.10;92.40;;;;;;4842438;29;20068;-81
2021/08/22 04:43:34;;;;;;;14.60;13.05;;;19.00;92.70;;;;;;4842260;29;20081;-81
2021/08/22 04:45:59;;;;;;;16.05;14.35;;;19.00;92.50;;;;;;4840858;29;20084;-81
2021/08/22 04:48:25;;;;;;;19.20;17.30;;;18.90;92.50;;;;;;4847259;29;20414;-81
2021/08/22 04:50:51;;;;;;;17.80;15.82;;;18.90;92.60;;;;;;4844964;29;20105;-81
2021/08/22 04:53:16;;;;;;;14.95;13.45;;;18.90;92.50;;;;;;4845112;29;20483;-82
2021/08/22 04:55:42;;;;;;;15.25;13.63;;;18.90;92.30;;;;;;4844290;29;20056;-82
2021/08/22 04:58:08;;;;;;;14.80;13.30;;;18.90;92.40;;;;;;4849844;29;20060;-83
2021/08/22 05:00:33;;;;;;;15.95;14.35;;;18.80;92.40;;;;;;4847880;29;20061;-83
2021/08/22 05:03:00;;;;;;;15.57;13.98;;;18.80;92.40;;;;;;4847128;29;20498;-83
2021/08/22 05:05:25;;;;;;;14.55;13.05;;;18.90;92.50;;;;;;4849212;29;20516;-83
2021/08/22 05:07:55;;;;;;;15.40;13.07;;;18.90;92.50;;;;;;4844376;29;20144;-83
2021/08/22 05:10:22;;;;;;;14.98;13.43;;;18.90;92.50;;;;;;4842118;29;20068;-83
2021/08/22 05:12:47;;;;;;;15.52;13.93;;;18.80;92.50;;;;;;4848722;29;20045;-83
2021/08/22 05:15:13;;;;;;;17.23;15.43;;;18.80;92.50;;;;;;4847147;29;20053;-83
2021/08/22 05:17:38;;;;;;;24.10;17.55;;;18.80;92.50;;;;;;4841965;29;20093;-83
2021/08/22 05:20:05;;;;;;;15.25;13.75;;;18.80;92.60;;;;;;4845774;29;20049;-83
2021/08/22 05:22:31;;;;;;;16.08;14.48;;;18.80;92.30;;;;;;4846560;29;20061;-83
2021/08/22 05:24:56;;;;;;;14.98;13.38;;;18.80;92.50;;;;;;4851311;29;20056;-83
2021/08/22 05:27:22;;;;;;;15.48;13.82;;;18.80;92.30;;;;;;4849777;29;20525;-83
2021/08/22 05:29:48;;;;;;;14.75;13.13;;;18.80;92.30;;;;;;4847252;29;20054;-83
2021/08/22 05:32:13;;;;;;;17.15;14.35;;;18.80;92.30;;;;;;4845710;29;20073;-83
2021/08/22 05:34:39;;;;;;;15.48;13.88;;;18.80;92.30;;;;;;4848179;29;20057;-83
2021/08/22 05:37:12;;;;;;;16.02;14.18;;;18.80;92.50;;;;;;4848935;29;20086;-84
2021/08/22 05:39:38;;;;;;;16.08;14.38;;;18.80;92.50;;;;;;4853181;29;20068;-83
2021/08/22 05:42:04;;;;;;;14.82;13.32;;;18.80;92.30;;;;;;4851095;29;20130;-84
2021/08/22 05:44:30;;;;;;;15.82;14.30;;;18.80;92.30;;;;;;4852148;29;20091;-84
2021/08/22 05:46:56;;;;;;;15.30;13.60;;;18.80;92.40;;;;;;4846478;29;20132;-84
2021/08/22 05:49:22;;;;;;;15.30;13.70;;;18.80;92.40;;;;;;4849357;29;20150;-84
2021/08/22 05:51:48;;;;;;;17.00;13.80;;;18.80;92.30;;;;;;4850948;29;20237;-84
2021/08/22 05:54:14;;;;;;;16.10;14.40;;;18.80;92.20;;;;;;4854725;29;20505;-85
2021/08/22 05:56:39;;;;;;;15.13;13.52;;;18.80;92.30;;;;;;4851654;29;20084;-85
2021/08/22 05:59:08;;;;;;;15.13;13.57;;;18.80;92.20;;;;;;4850683;29;20061;-85
2021/08/22 06:01:35;;;;;;;15.57;13.93;;;18.80;92.30;;;;;;4847823;29;20054;-86
2021/08/22 06:04:01;;;;;;;15.85;14.15;;;18.80;92.30;;;;;;4851642;29;20057;-85
2021/08/22 06:06:27;;;;;;;15.23;13.65;;;18.80;92.30;;;;;;4850319;29;20053;-85
2021/08/22 06:08:53;;;;;;;15.68;14.07;;;18.80;92.20;;;;;;4847906;29;20045;-85
2021/08/22 06:11:19;;;;;;;16.63;13.50;;;18.80;92.20;;;;;;4847104;29;20050;-83
2021/08/22 06:13:45;;;;;;;15.77;14.13;;;18.80;92.30;;;;;;4851498;29;20068;-84
2021/08/22 06:16:12;;;;;;;16.05;14.35;;;18.80;92.30;;;;;;4849930;29;20512;-83
2021/08/22 06:18:38;;;;;;;14.07;12.68;;;18.80;92.30;;;;;;4849048;29;20053;-82
2021/08/22 06:21:04;;;;;;;15.00;13.50;;;18.80;92.60;;;;;;4847723;29;20110;-83
2021/08/22 06:23:29;;;;;;;15.40;13.63;;;18.80;92.30;;;;;;4847168;29;20050;-83
2021/08/22 06:25:55;;;;;;;15.07;13.48;;;18.80;92.50;;;;;;4850427;29;20073;-83
2021/08/22 06:28:21;;;;;;;14.30;12.82;;;18.80;92.50;;;;;;4845535;29;20180;-83
2021/08/22 06:30:47;;;;;;;14.80;13.30;;;18.80;92.60;;;;;;4850334;29;20082;-82
2021/08/22 06:33:12;;;;;;;14.23;12.73;;;18.80;92.50;;;;;;4847610;29;20046;-81
2021/08/22 06:35:38;;;;;;;14.32;12.82;;;18.80;92.50;;;;;;4851794;29;20533;-82
2021/08/22 06:38:04;;;;;;;14.38;12.88;;;18.80;92.50;;;;;;4844809;29;20479;-82
2021/08/22 06:40:32;;;;;;;15.30;13.80;;;18.80;92.50;;;;;;4847977;29;20413;-83
2021/08/22 06:42:58;;;;;;;15.10;13.60;;;18.80;92.60;;;;;;4849924;29;20766;-82
2021/08/22 06:45:24;;;;;;;14.40;12.90;;;18.80;92.70;;;;;;4847730;29;20132;-83
2021/08/22 06:47:53;;;;;;;13.32;12.02;;;18.80;92.70;;;;;;4847540;29;20133;-83
2021/08/22 06:50:20;;;;;;;14.10;12.70;;;18.80;92.70;;;;;;4850897;29;20050;-83
2021/08/22 06:52:46;;;;;;;15.25;13.02;;;18.80;92.60;;;;;;4849074;29;20060;-82
2021/08/22 06:55:11;;;;;;;13.82;12.43;;;18.80;92.70;;;;;;4849793;29;20057;-82
2021/08/22 06:57:37;;;;;;;14.82;12.38;;;18.80;92.60;;;;;;4848997;29;20049;-82
2021/08/22 07:00:04;;;;;;;14.73;13.23;;;18.80;92.60;;;;;;4852025;29;20106;-82
2021/08/22 07:02:29;;;;;;;13.85;12.45;;;18.80;92.60;;;;;;4852258;29;20049;-82
2021/08/22 07:04:55;;;;;;;13.70;11.73;;;18.80;92.80;;;;;;4850168;29;20405;-82
2021/08/22 07:07:21;;;;;;;11.65;10.52;;;18.80;92.80;;;;;;4850297;29;20110;-82
2021/08/22 07:09:46;;;;;;;11.38;10.27;;;18.80;92.70;;;;;;4845035;29;20542;-82
2021/08/22 07:12:14;;;;;;;11.45;10.25;;;18.80;93.10;;;;;;4847233;29;20069;-81
2021/08/22 07:15:12;;;;;;;11.00;9.80;;;18.80;93.10;;;;;;4848126;29;21536;-87
2021/08/22 07:17:38;;;;;;;10.32;9.18;;;18.70;93.30;;;;;;4854541;29;20396;-86
2021/08/22 07:20:05;;;;;;;10.80;9.70;;;18.70;93.50;;;;;;4844695;29;20053;-86
2021/08/22 07:22:31;;;;;;;12.25;10.05;;;18.70;93.60;;;;;;4852815;29;20136;-86
2021/08/22 07:24:59;;;;;;;10.85;9.73;;;18.70;93.80;;;;;;4863643;29;20072;-84
2021/08/22 07:27:26;;;;;;;10.48;9.20;;;18.70;93.70;;;;;;4861628;29;20081;-82
2021/08/22 07:29:51;;;;;;;9.55;7.97;;;18.70;93.70;;;;;;4856750;29;20069;-82
2021/08/22 07:32:17;;;;;;;9.02;8.05;;;18.60;93.90;;;;;;4849574;29;20054;-82
2021/08/22 07:34:43;;;;;;;9.02;8.07;;;18.70;94.20;;;;;;4845717;29;20138;-81
2021/08/22 07:37:09;;;;;;;8.00;7.18;;;18.70;94.20;;;;;;4850014;29;20145;-82
2021/08/22 07:39:35;;;;;;;9.13;7.38;;;18.60;94.30;;;;;;4861822;29;20066;-81
2021/08/22 07:42:08;;;;;;;8.88;7.80;;;18.60;94.40;;;;;;4861606;29;20076;-81
2021/08/22 07:44:34;;;;;;;9.93;8.93;;;18.60;94.40;;;;;;4861778;29;20557;-82
2021/08/22 07:46:59;;;;;;;10.45;8.20;;;18.60;94.50;;;;;;4862325;29;20113;-82
2021/08/22 07:49:25;;;;;;;12.10;10.60;;;18.60;94.50;;;;;;4861745;29;20077;-83
2021/08/22 07:51:51;;;;;;;12.60;11.20;;;18.60;94.60;;;;;;4862236;29;20065;-83
2021/08/22 07:54:17;;;;;;;14.18;11.80;;;18.60;94.70;;;;;;4860895;29;20117;-82
2021/08/22 07:56:43;;;;;;;12.15;10.85;;;18.60;94.80;;;;;;4859469;29;20108;-82
2021/08/22 07:59:09;;;;;;;13.98;12.48;;;18.60;94.70;;;;;;4862174;29;20054;-84
2021/08/22 08:01:35;;;;;;;16.02;13.25;;;18.60;94.80;;;;;;4862127;29;20061;-84
2021/08/22 08:04:03;;;;;;;17.73;15.05;;;18.60;94.90;;;;;;4861858;29;20494;-84
2021/08/22 08:06:32;;;;;;;15.73;13.60;;;18.60;95.00;;;;;;4861334;29;20054;-84
2021/08/22 08:08:59;;;;;;;15.27;12.13;;;18.60;95.00;;;;;;4861346;29;20185;-84
2021/08/22 08:11:25;;;;;;;16.45;14.20;;;18.60;95.10;;;;;;4859063;29;20517;-84
2021/08/22 08:13:52;;;;;;;15.95;13.23;;;18.60;95.20;;;;;;4860473;29;20053;-85
2021/08/22 08:16:18;;;;;;;18.55;14.85;;;18.70;95.30;;;;;;4861481;29;20504;-85
2021/08/22 08:18:44;;;;;;;18.48;16.05;;;18.70;95.50;;;;;;4858406;29;20113;-84
2021/08/22 08:21:14;;;;;;;17.25;14.82;;;18.80;95.70;;;;;;4861440;29;20053;-84
2021/08/22 08:23:40;;;;;;;19.45;16.30;;;18.80;95.60;;;;;;4860701;29;20050;-84
2021/08/22 08:26:09;;;;;;;18.27;16.25;;;18.90;95.50;;;;;;4861996;29;20157;-86
2021/08/22 08:28:34;;;;;;;17.40;15.15;;;18.90;95.50;;;;;;4861317;29;20088;-85
2021/08/22 08:31:03;;;;;;;17.88;14.98;;;18.90;95.40;;;;;;4860074;29;20054;-85
2021/08/22 08:33:29;;;;;;;20.60;17.27;;;19.00;95.40;;;;;;4858092;29;20046;-84
2021/08/22 08:35:55;;;;;;;18.30;16.25;;;19.00;95.40;;;;;;4860107;29;20098;-84
2021/08/22 08:38:21;;;;;;;18.00;15.82;;;19.00;95.30;;;;;;4861087;29;20092;-85
2021/08/22 08:40:47;;;;;;;19.77;15.00;;;19.00;95.20;;;;;;4861440;29;20056;-86
2021/08/22 08:43:15;;;;;;;19.70;16.05;;;19.00;95.20;;;;;;4861682;29;20064;-85
2021/08/22 08:46:10;;;;;;;19.50;16.65;;;19.00;95.30;;;;;;4856142;29;20096;-85
2021/08/22 08:48:45;;;;;;;19.10;16.70;;;19.10;95.30;;;;;;4857915;29;20067;-85
2021/08/22 08:51:20;;;;;;;;;;;19.10;95.30;;;;;;4861534;29;20053;-84
2021/08/22 08:53:52;;;;;;;18.02;15.25;;;19.10;95.20;;;;;;4860147;29;19931;-85
2021/08/22 08:56:19;;;;;;;16.63;14.82;;;19.10;95.30;;;;;;4853561;29;20406;-84
2021/08/22 08:58:45;;;;;;;18.65;16.17;;;19.20;95.30;;;;;;4857857;29;20057;-84
2021/08/22 09:01:10;;;;;;;18.13;15.40;;;19.20;95.30;;;;;;4860407;29;20068;-83
2021/08/22 09:03:36;;;;;;;15.68;14.02;;;19.30;95.50;;;;;;4854787;29;20046;-82
2021/08/22 09:06:12;;;;;;;14.70;13.20;;;19.30;95.60;;;;;;4858476;29;20058;-85
2021/08/22 09:09:29;;;;;;;15.68;12.68;;;19.40;95.50;;;;;;4860487;29;20049;-83
2021/08/22 09:12:32;;;;;;;13.90;12.38;;;19.40;95.20;;;;;;4853509;29;20049;-84
2021/08/22 09:15:36;;;;;;;12.02;10.70;;;19.40;95.20;;;;;;4863234;29;20414;-83
2021/08/22 09:18:40;;;;;;;8.70;7.00;;;19.50;95.10;;;;;;4864745;29;20094;-84
2021/08/22 09:21:42;;;;;;;8.80;6.13;;;19.50;95.10;;;;;;4864358;29;20064;-84
2021/08/22 09:24:45;;;;;;;8.60;6.50;;;19.50;94.90;;;;;;4865341;29;20054;-84
2021/08/22 09:27:11;;;;;;;6.45;5.28;;;19.60;95.00;;;;;;4864548;29;20065;-84
2021/08/22 09:29:59;;;;;;;8.82;6.72;;;19.60;94.90;;;;;;4865590;29;20076;-84
2021/08/22 09:33:02;;;;;;;6.30;4.50;;;19.60;94.60;;;;;;4864856;29;20413;-83
2021/08/22 09:36:07;;;;;;;6.05;4.10;;;19.50;94.50;;;;;;4864043;29;20053;-84
2021/08/22 09:38:54;;;;;;;5.60;4.03;;;19.60;94.60;;;;;;4864824;29;20090;-83
2021/08/22 09:41:57;;;;;;;5.13;3.47;;;19.50;94.60;;;;;;4864821;29;20052;-82
2021/08/22 09:45:00;;;;;;;5.95;3.50;;;19.60;94.50;;;;;;4865135;29;20058;-83
2021/08/22 09:47:55;;;;;;;5.87;3.37;;;19.60;94.40;;;;;;4865030;29;20053;-83
2021/08/22 09:51:01;;;;;;;5.68;3.42;;;19.60;94.40;;;;;;4865067;29;20473;-84
2021/08/22 09:53:48;;;;;;;5.38;2.70;;;19.60;94.30;;;;;;4864991;29;20057;-84
2021/08/22 09:56:40;;;;;;;4.60;2.95;;;19.70;94.50;;;;;;4864580;29;20057;-84
2021/08/22 09:59:43;;;;;;;6.40;3.20;;;19.70;94.20;;;;;;4865209;29;20077;-83
2021/08/22 10:02:30;;;;;;;5.20;3.05;;;19.70;94.20;;;;;;4864547;29;20310;-84
2021/08/22 10:05:01;;;;;;;6.20;4.40;;;19.70;94.50;;;;;;4864894;29;20058;-83
2021/08/22 10:07:42;;;;;;;7.32;4.57;;;19.70;94.40;;;;;;4864987;29;20110;-85
2021/08/22 10:10:21;;;;;;;6.00;4.60;;;19.70;94.30;;;;;;4864257;29;20058;-85
2021/08/22 10:12:47;;;;;;;6.13;5.18;;;19.70;94.30;;;;;;4864296;29;20090;-84
2021/08/22 10:15:18;;;;;;;7.30;5.10;;;19.70;94.40;;;;;;4864767;29;20125;-84
2021/08/22 10:17:50;;;;;;;5.85;4.70;;;19.80;94.40;;;;;;4863269;29;20057;-85
2021/08/22 10:20:19;;;;;;;7.40;4.82;;;19.80;94.40;;;;;;4863285;29;20561;-84
2021/08/22 10:22:48;;;;;;;6.80;3.72;;;19.90;94.50;;;;;;4863664;29;20450;-84
2021/08/22 10:25:20;;;;;;;6.68;3.92;;;19.90;94.40;;;;;;4863710;29;20053;-85
2021/08/22 10:27:50;;;;;;;7.85;3.72;;;20.00;94.20;;;;;;4864101;29;20062;-86
2021/08/22 10:30:24;;;;;;;5.80;3.88;;;20.00;94.00;;;;;;4863547;29;20057;-84
2021/08/22 10:32:59;;;;;;;5.15;3.45;;;20.10;94.10;;;;;;4863662;29;20102;-84
2021/08/22 10:35:29;;;;;;;5.25;3.05;;;20.10;94.00;;;;;;4864303;29;20077;-85
2021/08/22 10:37:54;;;;;;;5.90;2.85;;;20.20;93.80;;;;;;4863481;29;20073;-85
2021/08/22 10:40:23;;;;;;;5.30;2.90;;;20.30;93.50;;;;;;4864219;29;20088;-84
2021/08/22 10:42:57;;;;;;;5.35;3.17;;;20.30;93.20;;;;;;4863205;29;20061;-84
2021/08/22 10:45:42;;;;;;;5.45;2.90;;;20.30;93.20;;;;;;4862867;29;20494;-85
2021/08/22 10:48:09;;;;;;;4.13;2.53;;;20.30;93.00;;;;;;4864056;29;20053;-86
2021/08/22 10:50:57;;;;;;;5.60;2.80;;;20.30;93.00;;;;;;4863364;29;20049;-85
2021/08/22 10:53:33;;;;;;;4.25;2.47;;;20.30;92.60;;;;;;4862825;29;20075;-84
2021/08/22 10:56:20;;;;;;;4.53;2.63;;;20.30;92.70;;;;;;4863238;29;20086;-84
2021/08/22 10:59:08;;;;;;;4.35;2.33;;;20.30;92.60;;;;;;4863099;29;20056;-83
2021/08/22 11:01:39;;;;;;;5.30;2.50;;;20.30;92.30;;;;;;4863755;29;20512;-83
2021/08/22 11:04:08;;;;;;;4.85;2.40;;;20.30;92.60;;;;;;4864199;29;20050;-84
2021/08/22 11:06:54;;;;;;;4.60;2.28;;;20.30;92.60;;;;;;4862814;29;20133;-84
2021/08/22 11:09:40;;;;;;;3.03;1.70;;;20.30;92.70;;;;;;4863742;29;20061;-83
2021/08/22 11:12:26;;;;;;;3.47;1.70;;;20.20;92.60;;;;;;4863793;29;20070;-83
2021/08/22 11:14:52;;;;;;;2.90;1.33;;;20.20;92.80;;;;;;4863600;29;20087;-83
2021/08/22 11:17:18;;;;;;;4.43;1.33;;;20.20;93.10;;;;;;4863514;29;20113;-84
2021/08/22 11:19:44;;;;;;;2.88;1.60;;;20.30;93.20;;;;;;4862364;29;20493;-83
2021/08/22 11:22:25;;;;;;;2.38;1.30;;;20.30;93.20;;;;;;4863119;29;20555;-83
2021/08/22 11:24:52;;;;;;;6.82;1.70;;;20.30;93.10;;;;;;4862870;29;20059;-83
2021/08/22 11:27:22;;;;;;;4.70;1.60;;;20.30;93.10;;;;;;4862433;29;20052;-83
2021/08/22 11:29:55;;;;;;;2.90;1.70;;;20.30;93.20;;;;;;4863148;29;20053;-84
2021/08/22 11:32:20;;;;;;;3.40;1.80;;;20.30;93.20;;;;;;4863052;29;20057;-83
2021/08/22 11:34:46;;;;;;;3.10;1.92;;;20.40;93.30;;;;;;4861735;29;20105;-83
2021/08/22 11:37:20;;;;;;;3.60;1.80;;;20.40;93.50;;;;;;4860094;29;20053;-84
2021/08/22 11:39:46;;;;;;;3.22;1.70;;;20.50;93.50;;;;;;4861751;29;20057;-83
2021/08/22 11:42:18;;;;;;;2.83;1.75;;;20.60;93.30;;;;;;4862333;29;20149;-82
2021/08/22 11:44:43;;;;;;;3.50;2.10;;;20.60;93.20;;;;;;4862071;29;20106;-82
2021/08/22 11:47:09;;;;;;;3.83;2.10;;;20.70;92.80;;;;;;4860231;29;20057;-81
2021/08/22 11:49:36;;;;;;;3.83;2.13;;;20.70;92.70;;;;;;4860756;29;20080;-82
2021/08/22 11:52:03;;;;;;;4.32;2.10;;;20.70;92.60;;;;;;4862431;29;20064;-81
2021/08/22 11:54:31;;;;;;;4.70;2.35;;;20.80;92.50;;;;;;4861621;29;20487;-81
2021/08/22 11:57:20;;;;;;;4.30;2.50;;;20.80;92.50;;;;;;4861978;29;20136;-83
2021/08/22 11:59:59;;;;;;;4.72;2.95;;;20.80;92.20;;;;;;4862096;29;20057;-83
2021/08/22 12:02:26;;;;;;;4.75;2.53;;;20.80;92.30;;;;;;4861517;29;20084;-82
2021/08/22 12:05:13;;;;;;;4.78;2.50;;;20.80;92.40;;;;;;4861272;29;20253;-82
2021/08/22 12:07:41;;;;;;;5.30;2.65;;;20.80;92.30;;;;;;4861925;29;20049;-82
2021/08/22 12:10:07;;;;;;;4.00;2.22;;;20.80;92.40;;;;;;4861332;29;20073;-83
2021/08/22 12:12:39;;;;;;;4.57;2.67;;;20.80;92.40;;;;;;4861859;29;20441;-82
2021/08/22 12:15:09;;;;;;;5.40;2.70;;;20.80;92.30;;;;;;4859976;29;20041;-83
2021/08/22 12:17:35;;;;;;;4.55;2.63;;;20.90;92.20;;;;;;4861264;29;20057;-82
2021/08/22 12:20:22;;;;;;;4.63;2.30;;;20.90;92.10;;;;;;4861753;29;20094;-83
2021/08/22 12:23:05;;;;;;;5.53;2.45;;;20.90;91.60;;;;;;4860628;29;20049;-81
2021/08/22 12:25:31;;;;;;;5.32;2.47;;;20.90;91.60;;;;;;4861300;29;20513;-82
2021/08/22 12:28:23;;;;;;;5.85;2.50;;;21.00;91.70;;;;;;4861641;29;20046;-82
2021/08/22 12:31:10;;;;;;;4.40;2.20;;;21.00;91.60;;;;;;4860787;29;20057;-82
2021/08/22 12:33:41;;;;;;;4.50;2.40;;;21.00;91.70;;;;;;4861290;29;20049;-82
2021/08/22 12:36:18;;;;;;;4.93;2.17;;;21.10;91.70;;;;;;4861804;29;20060;-82
2021/08/22 12:38:48;;;;;;;5.10;2.17;;;21.10;91.50;;;;;;4854475;29;20076;-81
2021/08/22 12:41:51;;;;;;;5.40;2.47;;;21.20;91.40;;;;;;4861148;29;20066;-81
2021/08/22 12:44:21;;;;;;;3.92;2.03;;;21.20;91.40;;;;;;4859956;29;20053;-81
2021/08/22 12:46:48;;;;;;;6.25;2.08;;;21.30;91.10;;;;;;4860636;29;20110;-81
2021/08/22 12:49:14;;;;;;;5.30;2.25;;;21.30;91.10;;;;;;4861111;29;20065;-81